Time;durP1;ratioP1;P1;durP2;ratioP2;P2;SDS_P1;SDS_P2;PMS_P1;PMS_P2;Temp;Humidity;BMP_temperature;BMP_pressure;BME280_temperature;BME280_humidity;BME280_pressure;Samples;Min_cycle;Max_cycle;Signal;HPM_P1;HPM_P2
2023/01/21 00:02:05;;;;;;;24.10;12.10;;;2.30;99.90;;;;;;4945197;28;20224;-73
2023/01/21 00:04:57;;;;;;;19.63;11.13;;;2.30;99.90;;;;;;4927330;28;20347;-72
2023/01/21 00:07:46;;;;;;;22.57;12.47;;;2.30;99.90;;;;;;4924239;28;20240;-72
2023/01/21 00:10:35;;;;;;;19.63;10.70;;;2.20;99.90;;;;;;4916320;28;20244;-74
2023/01/21 00:13:24;;;;;;;19.87;11.20;;;2.30;99.90;;;;;;4933484;28;20597;-73
2023/01/21 00:16:13;;;;;;;17.93;11.07;;;2.40;99.90;;;;;;4943110;28;20316;-74
2023/01/21 00:19:04;;;;;;;17.77;10.73;;;2.30;99.90;;;;;;4922682;28;20243;-73
2023/01/21 00:21:53;;;;;;;17.67;11.17;;;2.30;99.90;;;;;;4925253;28;20363;-72
2023/01/21 00:24:45;;;;;;;20.10;10.60;;;2.40;99.90;;;;;;4923585;28;20807;-70
2023/01/21 00:27:34;;;;;;;18.93;10.70;;;2.20;99.90;;;;;;4919223;28;20242;-70
2023/01/21 00:30:23;;;;;;;13.67;9.47;;;2.30;99.90;;;;;;4929383;28;20858;-71
2023/01/21 00:33:12;;;;;;;14.17;9.53;;;2.40;99.90;;;;;;4925764;29;20217;-74
2023/01/21 00:36:05;;;;;;;15.17;9.50;;;2.40;99.90;;;;;;4918508;28;20727;-72
2023/01/21 00:38:54;;;;;;;14.53;9.20;;;2.50;99.90;;;;;;4923233;28;20293;-73
2023/01/21 00:41:43;;;;;;;15.43;9.57;;;2.40;99.90;;;;;;4930086;28;20254;-75
2023/01/21 00:44:32;;;;;;;14.30;8.70;;;2.50;99.90;;;;;;4915242;29;20328;-72
2023/01/21 00:47:21;;;;;;;15.47;9.23;;;2.50;99.90;;;;;;4934687;28;20236;-74
2023/01/21 00:50:11;;;;;;;14.90;8.80;;;2.50;99.90;;;;;;4937170;28;20228;-73
2023/01/21 00:53:01;;;;;;;14.77;8.93;;;2.50;99.90;;;;;;4932825;28;20227;-73
2023/01/21 00:55:50;;;;;;;12.13;8.03;;;2.40;99.90;;;;;;4939705;28;20228;-76
2023/01/21 00:58:43;;;;;;;16.00;9.00;;;2.40;99.90;;;;;;4925343;28;20253;-74
2023/01/21 01:01:36;;;;;;;14.70;8.97;;;2.40;99.90;;;;;;4924822;29;20675;-74
2023/01/21 01:04:25;;;;;;;14.43;8.83;;;2.30;99.90;;;;;;4946539;28;20227;-75
2023/01/21 01:07:14;;;;;;;11.87;7.87;;;2.40;99.90;;;;;;4927707;28;21003;-75
2023/01/21 01:10:05;;;;;;;11.97;7.67;;;2.30;99.90;;;;;;4941311;28;20275;-75
2023/01/21 01:12:54;;;;;;;12.20;7.30;;;2.40;99.90;;;;;;4921364;29;20307;-75
2023/01/21 01:15:43;;;;;;;10.73;7.70;;;2.40;99.90;;;;;;4937087;28;20223;-74
2023/01/21 01:18:33;;;;;;;11.00;7.00;;;2.40;99.90;;;;;;4950122;28;20555;-76
2023/01/21 01:21:26;;;;;;;11.97;7.43;;;2.40;99.90;;;;;;4935053;28;20260;-75
2023/01/21 01:24:16;;;;;;;10.70;7.27;;;2.30;99.90;;;;;;4917267;28;20252;-76
2023/01/21 01:27:06;;;;;;;10.87;7.37;;;2.10;99.90;;;;;;4919532;28;20236;-75
2023/01/21 01:29:55;;;;;;;12.93;8.50;;;2.10;99.90;;;;;;4909402;29;20239;-73
2023/01/21 01:32:43;;;;;;;11.63;7.93;;;1.90;99.90;;;;;;4934429;28;20235;-74
2023/01/21 01:35:33;;;;;;;10.97;7.40;;;1.80;99.90;;;;;;4926269;28;20225;-73
2023/01/21 01:38:23;;;;;;;12.20;7.97;;;1.80;99.90;;;;;;4926506;28;20227;-74
2023/01/21 01:41:16;;;;;;;12.07;7.60;;;1.50;99.90;;;;;;4919436;28;20334;-75
2023/01/21 01:44:22;;;;;;;12.83;8.10;;;1.30;99.90;;;;;;4922667;28;20704;-74
2023/01/21 01:47:11;;;;;;;13.27;8.30;;;1.50;99.90;;;;;;4924559;28;20643;-76
2023/01/21 01:50:05;;;;;;;13.20;8.63;;;1.30;99.90;;;;;;4927701;28;20237;-74
2023/01/21 01:52:55;;;;;;;13.47;8.57;;;1.20;99.90;;;;;;4922067;28;20239;-74
2023/01/21 01:55:45;;;;;;;14.43;8.60;;;1.40;99.90;;;;;;4921476;28;20733;-72
2023/01/21 01:58:34;;;;;;;13.90;8.80;;;1.40;99.90;;;;;;4915756;29;20221;-73
2023/01/21 02:01:24;;;;;;;14.17;8.60;;;1.20;99.90;;;;;;4936577;28;20235;-75
2023/01/21 02:04:20;;;;;;;14.33;9.10;;;1.30;99.90;;;;;;4923214;29;20306;-69
2023/01/21 02:07:09;;;;;;;14.57;9.17;;;1.40;99.90;;;;;;4937747;28;20598;-68
2023/01/21 02:09:58;;;;;;;13.33;8.47;;;1.50;99.90;;;;;;4919779;28;20227;-70
2023/01/21 02:12:47;;;;;;;13.20;8.33;;;1.30;99.90;;;;;;4946710;28;20236;-69
2023/01/21 02:15:45;;;;;;;12.70;7.87;;;1.40;99.90;;;;;;4921733;28;20223;-70
2023/01/21 02:18:43;;;;;;;15.23;8.93;;;1.20;99.90;;;;;;4945627;28;20242;-70
2023/01/21 02:21:51;;;;;;;14.27;9.30;;;1.30;99.90;;;;;;4915054;28;20246;-70
2023/01/21 02:25:25;;;;;;;14.90;8.33;;;1.20;99.90;;;;;;4921836;28;20219;-71
2023/01/21 02:28:52;;;;;;;15.43;8.77;;;1.10;99.90;;;;;;4926829;28;20298;-69
2023/01/21 02:32:10;;;;;;;12.07;7.80;;;1.30;99.90;;;;;;4914191;28;20286;-72
2023/01/21 02:35:14;;;;;;;12.17;7.90;;;1.20;99.90;;;;;;4925499;28;20363;-70
2023/01/21 02:38:10;;;;;;;12.73;8.60;;;1.20;99.90;;;;;;4929697;28;20251;-71
2023/01/21 02:41:08;;;;;;;12.53;7.50;;;1.30;99.90;;;;;;4919026;28;20232;-73
2023/01/21 02:44:05;;;;;;;12.67;8.17;;;1.20;99.90;;;;;;4921745;28;20234;-69
2023/01/21 02:46:59;;;;;;;12.03;7.33;;;1.10;99.90;;;;;;4951952;28;20234;-69
2023/01/21 02:49:54;;;;;;;9.13;5.97;;;1.20;99.90;;;;;;4923229;28;20991;-70
2023/01/21 02:52:55;;;;;;;12.70;7.63;;;1.10;99.90;;;;;;4924188;28;20265;-70
2023/01/21 02:55:43;;;;;;;10.87;7.30;;;1.10;99.90;;;;;;4921542;28;20236;-70
2023/01/21 02:58:36;;;;;;;14.53;6.97;;;1.10;99.90;;;;;;4942856;28;20698;-69
2023/01/21 03:01:38;;;;;;;11.30;7.53;;;0.90;99.90;;;;;;4931631;28;20226;-72
2023/01/21 03:04:52;;;;;;;12.60;7.70;;;1.10;99.90;;;;;;4942086;28;20634;-70
2023/01/21 03:07:48;;;;;;;14.17;8.27;;;1.10;99.90;;;;;;4937709;28;20304;-70
2023/01/21 03:10:42;;;;;;;12.50;7.70;;;1.20;99.90;;;;;;4948634;28;20225;-71
2023/01/21 03:16:57;;;;;;;12.73;8.50;;;1.10;99.90;;;;;;4922924;28;20232;-71
2023/01/21 03:19:50;;;;;;;11.97;8.20;;;1.20;99.90;;;;;;4931352;28;20602;-72
2023/01/21 03:22:40;;;;;;;11.37;7.80;;;1.30;99.90;;;;;;4916183;28;20570;-70
2023/01/21 03:25:33;;;;;;;12.70;8.17;;;1.10;99.90;;;;;;4923160;28;20252;-69
2023/01/21 03:28:24;;;;;;;13.67;7.73;;;1.10;99.90;;;;;;4920097;28;20237;-72
2023/01/21 03:31:18;;;;;;;12.43;7.67;;;1.20;99.90;;;;;;4919101;28;20586;-71
2023/01/21 03:34:11;;;;;;;10.13;6.77;;;1.20;99.90;;;;;;4925081;28;20237;-71
2023/01/21 03:37:08;;;;;;;11.07;6.67;;;1.10;99.90;;;;;;4936151;28;20234;-70
2023/01/21 03:40:13;;;;;;;13.77;7.40;;;1.00;99.90;;;;;;4923056;28;20230;-72
2023/01/21 03:43:04;;;;;;;11.93;7.40;;;1.10;99.90;;;;;;4932981;28;20702;-72
2023/01/21 03:46:03;;;;;;;11.73;7.27;;;1.20;99.90;;;;;;4921548;28;20726;-71
2023/01/21 03:48:57;;;;;;;11.10;6.70;;;1.10;99.90;;;;;;4927833;28;20251;-69
2023/01/21 03:51:50;;;;;;;11.67;5.77;;;1.10;99.90;;;;;;4920326;28;20646;-72
2023/01/21 03:54:41;;;;;;;11.03;6.43;;;1.00;99.90;;;;;;4930758;28;20418;-71
2023/01/21 03:57:32;;;;;;;9.97;5.70;;;1.10;99.90;;;;;;4919075;28;20685;-73
2023/01/21 04:00:22;;;;;;;10.57;5.73;;;1.90;99.90;;;;;;4934575;28;20229;-73
2023/01/21 04:03:11;;;;;;;8.73;5.03;;;2.50;99.90;;;;;;4920169;28;20231;-72
2023/01/21 04:06:00;;;;;;;9.73;5.77;;;2.50;99.90;;;;;;4943339;28;20905;-72
2023/01/21 04:08:49;;;;;;;11.03;5.50;;;2.60;99.90;;;;;;4938053;28;20225;-73
2023/01/21 04:11:38;;;;;;;7.63;5.00;;;2.70;99.90;;;;;;4928811;28;20621;-73
2023/01/21 04:14:27;;;;;;;7.23;4.30;;;2.50;99.90;;;;;;4924769;28;20232;-72
2023/01/21 04:17:19;;;;;;;7.63;4.83;;;2.10;99.90;;;;;;4954799;28;20226;-72
2023/01/21 04:20:09;;;;;;;9.30;5.40;;;2.10;99.90;;;;;;4945441;28;20233;-72
2023/01/21 04:22:58;;;;;;;8.70;4.90;;;2.10;99.90;;;;;;4918911;28;20232;-71
2023/01/21 04:25:47;;;;;;;8.47;4.57;;;2.20;99.90;;;;;;4928452;28;20754;-72
2023/01/21 04:28:36;;;;;;;8.00;4.43;;;2.00;99.90;;;;;;4935182;28;20230;-72
2023/01/21 04:31:25;;;;;;;10.87;3.87;;;2.10;99.90;;;;;;4951750;28;20229;-72
2023/01/21 04:34:16;;;;;;;7.77;4.17;;;2.00;99.90;;;;;;4924317;29;20361;-71
2023/01/21 04:37:05;;;;;;;7.07;4.20;;;1.80;99.90;;;;;;4937427;28;20227;-71
2023/01/21 04:39:54;;;;;;;6.37;3.90;;;1.90;99.90;;;;;;4928535;28;20321;-71
2023/01/21 04:42:43;;;;;;;5.93;3.90;;;1.80;99.90;;;;;;4920337;28;20230;-69
2023/01/21 04:45:32;;;;;;;9.20;4.37;;;1.80;99.90;;;;;;4920622;28;20230;-72
2023/01/21 04:48:24;;;;;;;5.23;3.60;;;1.80;99.90;;;;;;4928134;28;20230;-73
2023/01/21 04:51:17;;;;;;;4.50;3.50;;;1.80;99.90;;;;;;4927171;29;20236;-72
2023/01/21 04:54:06;;;;;;;4.67;2.97;;;1.80;99.90;;;;;;4931258;28;20229;-72
2023/01/21 04:56:55;;;;;;;4.43;3.20;;;1.70;99.90;;;;;;4925667;28;20268;-70
2023/01/21 04:59:44;;;;;;;4.60;3.10;;;1.70;99.90;;;;;;4952096;28;20240;-72
2023/01/21 05:02:37;;;;;;;5.63;3.40;;;1.70;99.90;;;;;;4921006;28;20225;-71
2023/01/21 05:05:25;;;;;;;5.07;3.00;;;1.80;99.90;;;;;;4942019;28;20228;-73
2023/01/21 05:08:16;;;;;;;6.17;3.13;;;1.80;99.90;;;;;;4912628;28;20265;-69
2023/01/21 05:11:08;;;;;;;4.23;2.70;;;1.80;99.90;;;;;;4942344;28;20231;-70
2023/01/21 05:14:00;;;;;;;4.90;3.00;;;1.80;99.90;;;;;;4934253;28;20241;-70
2023/01/21 05:16:49;;;;;;;5.83;3.27;;;1.80;99.90;;;;;;4925775;28;20238;-72
2023/01/21 05:19:38;;;;;;;7.23;4.40;;;1.80;99.90;;;;;;4941661;28;20227;-71
2023/01/21 05:22:26;;;;;;;6.07;3.07;;;1.80;99.90;;;;;;4930148;28;20235;-71
2023/01/21 05:25:19;;;;;;;4.70;3.23;;;1.80;99.90;;;;;;4929191;28;20815;-71
2023/01/21 05:28:08;;;;;;;4.37;2.37;;;1.80;99.90;;;;;;4953013;28;20229;-73
2023/01/21 05:31:00;;;;;;;5.80;2.80;;;1.70;99.90;;;;;;4935563;28;20225;-70
2023/01/21 05:33:49;;;;;;;4.17;2.57;;;1.80;99.90;;;;;;4922907;28;20814;-70
2023/01/21 05:36:38;;;;;;;3.93;2.60;;;1.90;99.90;;;;;;4923860;28;20222;-69
2023/01/21 05:39:30;;;;;;;5.07;3.03;;;1.90;99.90;;;;;;4926511;28;20248;-71
2023/01/21 05:42:21;;;;;;;4.20;2.60;;;2.00;99.90;;;;;;4926267;28;20614;-70
2023/01/21 05:45:11;;;;;;;3.50;2.60;;;2.10;99.90;;;;;;4955114;28;20248;-69
2023/01/21 05:48:00;;;;;;;4.23;2.70;;;1.90;99.90;;;;;;4924014;28;20735;-70
2023/01/21 05:50:49;;;;;;;4.10;2.90;;;1.90;99.90;;;;;;4917991;29;20684;-70
2023/01/21 05:53:37;;;;;;;5.43;2.70;;;2.00;99.90;;;;;;4933741;28;20231;-70
2023/01/21 05:56:27;;;;;;;3.53;2.70;;;1.90;99.90;;;;;;4922006;28;21114;-73
2023/01/21 05:59:19;;;;;;;4.27;2.63;;;1.90;99.90;;;;;;4924339;28;20230;-71
2023/01/21 06:02:09;;;;;;;3.13;2.70;;;1.80;99.90;;;;;;4918889;28;20238;-72
2023/01/21 06:04:57;;;;;;;3.63;2.70;;;2.00;99.90;;;;;;4929350;28;20585;-73
2023/01/21 06:07:46;;;;;;;4.37;2.67;;;1.80;99.90;;;;;;4918937;28;20229;-72
2023/01/21 06:10:35;;;;;;;3.77;2.33;;;1.90;99.90;;;;;;4941031;28;20238;-74
2023/01/21 06:13:24;;;;;;;5.03;2.50;;;1.80;99.90;;;;;;4925325;29;20239;-71
2023/01/21 06:16:14;;;;;;;5.57;2.90;;;1.90;99.90;;;;;;4925471;28;20231;-69
2023/01/21 06:19:03;;;;;;;4.20;2.97;;;1.90;99.90;;;;;;4951289;28;20250;-70
2023/01/21 06:21:53;;;;;;;3.30;2.40;;;2.00;99.90;;;;;;4958113;28;20239;-69
2023/01/21 06:24:41;;;;;;;3.07;2.33;;;1.90;99.90;;;;;;4922180;28;20913;-70
2023/01/21 06:27:30;;;;;;;3.47;2.43;;;1.80;99.90;;;;;;4920460;28;20231;-70
2023/01/21 06:30:19;;;;;;;3.10;2.33;;;1.90;99.90;;;;;;4938257;28;20253;-68
2023/01/21 06:33:13;;;;;;;4.33;2.90;;;1.90;99.90;;;;;;4925611;28;20239;-70
2023/01/21 06:36:02;;;;;;;4.63;2.67;;;2.10;99.90;;;;;;4919058;28;20227;-71
2023/01/21 06:38:51;;;;;;;3.77;2.70;;;2.00;99.90;;;;;;4928016;28;20236;-71
2023/01/21 06:41:39;;;;;;;4.50;2.43;;;1.80;99.90;;;;;;4943302;28;20224;-74
2023/01/21 06:44:30;;;;;;;4.03;2.63;;;1.80;99.90;;;;;;4915735;28;20239;-71
2023/01/21 06:47:19;;;;;;;5.17;3.17;;;2.00;99.90;;;;;;4918870;28;20740;-71
2023/01/21 06:50:11;;;;;;;5.03;3.20;;;2.10;99.90;;;;;;4923872;28;20242;-70
2023/01/21 06:53:00;;;;;;;5.20;3.27;;;1.80;99.90;;;;;;4925218;28;20230;-70
2023/01/21 06:55:49;;;;;;;5.17;3.23;;;1.90;99.90;;;;;;4917831;28;20222;-73
2023/01/21 06:58:38;;;;;;;5.07;3.20;;;1.80;99.90;;;;;;4922177;28;20227;-72
2023/01/21 07:01:27;;;;;;;5.80;2.90;;;1.70;99.90;;;;;;4946870;28;20230;-73
2023/01/21 07:04:20;;;;;;;3.53;2.40;;;1.70;99.90;;;;;;4925106;28;20243;-72
2023/01/21 07:07:10;;;;;;;5.50;3.07;;;1.70;99.90;;;;;;4921747;28;20234;-72
2023/01/21 07:09:59;;;;;;;6.30;2.90;;;1.50;99.90;;;;;;4925584;28;20820;-73
2023/01/21 07:12:49;;;;;;;5.50;2.77;;;1.50;99.90;;;;;;4922506;28;20328;-70
2023/01/21 07:15:37;;;;;;;4.37;2.87;;;1.60;99.90;;;;;;4918880;28;20932;-73
2023/01/21 07:18:26;;;;;;;4.33;2.93;;;1.40;99.90;;;;;;4917974;28;20217;-74
2023/01/21 07:21:15;;;;;;;5.73;2.93;;;1.60;99.90;;;;;;4923555;28;20245;-74
2023/01/21 07:24:06;;;;;;;5.03;3.00;;;1.80;99.90;;;;;;4944321;28;20230;-71
2023/01/21 07:26:55;;;;;;;4.53;3.00;;;1.90;99.90;;;;;;4949957;28;20223;-74
2023/01/21 07:29:44;;;;;;;4.93;3.10;;;1.90;99.90;;;;;;4917573;28;20222;-73
2023/01/21 07:32:33;;;;;;;5.80;3.00;;;2.00;99.90;;;;;;4925710;28;20234;-72
2023/01/21 07:35:22;;;;;;;4.00;3.00;;;2.10;99.90;;;;;;4934138;28;20233;-74
2023/01/21 07:38:10;;;;;;;4.30;3.03;;;2.10;99.90;;;;;;4932601;28;20231;-67
2023/01/21 07:41:01;;;;;;;4.10;2.83;;;2.10;99.90;;;;;;4929290;28;20225;-68
2023/01/21 07:43:50;;;;;;;5.70;3.20;;;2.10;99.90;;;;;;4928161;28;20581;-67
2023/01/21 07:46:39;;;;;;;6.00;3.60;;;2.10;99.90;;;;;;4917684;28;20242;-68
2023/01/21 07:49:31;;;;;;;4.70;3.10;;;2.10;99.90;;;;;;4931942;28;20313;-70
2023/01/21 07:52:19;;;;;;;4.90;3.17;;;2.10;99.90;;;;;;4920555;28;20217;-70
2023/01/21 07:55:09;;;;;;;7.03;3.50;;;2.10;99.90;;;;;;4941849;28;20239;-69
2023/01/21 07:58:01;;;;;;;5.00;3.27;;;2.00;99.90;;;;;;4923192;28;20241;-68
2023/01/21 08:00:50;;;;;;;3.83;2.53;;;2.10;99.90;;;;;;4922789;28;20727;-70
2023/01/21 08:03:39;;;;;;;3.40;2.77;;;1.90;99.90;;;;;;4920335;28;20813;-68
2023/01/21 08:06:30;;;;;;;5.43;2.93;;;1.90;99.90;;;;;;4927172;28;20237;-70
2023/01/21 08:09:19;;;;;;;4.07;2.60;;;1.80;99.90;;;;;;4927513;28;20238;-69
2023/01/21 08:12:09;;;;;;;5.30;2.60;;;1.80;99.90;;;;;;4944050;28;20305;-70
2023/01/21 08:14:59;;;;;;;4.33;3.13;;;1.80;99.90;;;;;;4926020;28;20228;-70
2023/01/21 08:17:51;;;;;;;7.83;3.20;;;1.80;99.90;;;;;;4920745;28;20240;-69
2023/01/21 08:20:40;;;;;;;5.23;2.77;;;1.80;99.90;;;;;;4924467;28;20225;-70
2023/01/21 08:23:30;;;;;;;6.13;3.13;;;1.80;99.90;;;;;;4924834;28;20227;-69
2023/01/21 08:26:19;;;;;;;5.63;3.00;;;1.80;99.90;;;;;;4931137;28;20686;-67
2023/01/21 08:29:08;;;;;;;4.20;3.20;;;2.00;99.90;;;;;;4922562;29;20286;-69
2023/01/21 08:31:59;;;;;;;4.50;3.37;;;2.10;99.90;;;;;;4926903;28;20704;-69
2023/01/21 08:34:49;;;;;;;5.07;2.73;;;2.10;99.90;;;;;;4922225;28;20598;-69
2023/01/21 08:37:42;;;;;;;5.80;3.30;;;2.20;99.90;;;;;;4923816;28;20233;-70
2023/01/21 08:40:31;;;;;;;3.77;2.60;;;2.20;99.90;;;;;;4921956;28;20223;-74
2023/01/21 08:43:20;;;;;;;5.17;3.70;;;2.30;99.90;;;;;;4932811;28;20230;-72
2023/01/21 08:46:09;;;;;;;4.70;3.63;;;2.50;99.90;;;;;;4926991;28;20255;-74
2023/01/21 08:48:59;;;;;;;4.63;3.40;;;2.50;99.90;;;;;;4932442;28;20732;-71
2023/01/21 08:51:48;;;;;;;5.27;3.50;;;2.40;99.90;;;;;;4918767;28;20240;-72
2023/01/21 08:54:37;;;;;;;5.43;3.27;;;2.40;99.90;;;;;;4926402;28;20219;-78
2023/01/21 08:57:27;;;;;;;4.27;3.23;;;2.40;99.90;;;;;;4926518;28;20222;-73
2023/01/21 09:00:21;;;;;;;8.43;4.40;;;2.40;99.90;;;;;;4927370;28;20225;-67
2023/01/21 09:03:12;;;;;;;8.30;4.00;;;2.40;99.90;;;;;;4912403;28;20240;-67
2023/01/21 09:06:03;;;;;;;9.10;4.87;;;2.40;99.90;;;;;;4942296;28;20242;-67
2023/01/21 09:08:51;;;;;;;7.83;4.37;;;2.50;99.90;;;;;;4939486;28;20650;-67
2023/01/21 09:11:40;;;;;;;11.73;5.17;;;2.50;99.90;;;;;;4915945;28;20225;-68
2023/01/21 09:14:31;;;;;;;10.40;5.40;;;2.40;99.90;;;;;;4944493;28;20224;-66
2023/01/21 09:17:24;;;;;;;7.30;4.63;;;2.50;99.90;;;;;;4936569;28;20230;-67
2023/01/21 09:20:13;;;;;;;10.73;6.23;;;2.30;99.90;;;;;;4926668;28;20224;-68
2023/01/21 09:23:22;;;;;;;10.27;5.90;;;2.40;99.90;;;;;;4915631;28;20238;-69
2023/01/21 09:26:15;;;;;;;12.47;6.77;;;2.50;99.90;;;;;;4916324;28;20231;-68
2023/01/21 09:29:03;;;;;;;10.83;6.53;;;2.40;99.90;;;;;;4917910;29;20222;-69
2023/01/21 09:31:52;;;;;;;10.33;6.70;;;2.50;99.90;;;;;;4919884;28;20242;-69
2023/01/21 09:34:41;;;;;;;11.63;7.00;;;2.50;99.90;;;;;;4918364;29;20215;-69
2023/01/21 09:37:33;;;;;;;11.83;6.90;;;2.60;99.90;;;;;;4939077;28;20221;-70
2023/01/21 09:40:23;;;;;;;11.27;7.50;;;2.60;99.90;;;;;;4921454;28;20238;-66
2023/01/21 09:43:18;;;;;;;13.87;7.73;;;2.70;99.90;;;;;;4930628;28;20759;-68
2023/01/21 09:46:17;;;;;;;14.67;8.17;;;2.70;99.90;;;;;;4918932;28;20231;-66
2023/01/21 09:49:11;;;;;;;15.37;8.67;;;2.70;99.90;;;;;;4912308;29;20728;-67
2023/01/21 09:52:08;;;;;;;15.83;8.47;;;2.80;99.90;;;;;;4936660;28;20601;-67
2023/01/21 09:54:58;;;;;;;12.53;8.00;;;2.90;99.90;;;;;;4927616;28;20235;-66
2023/01/21 09:58:18;;;;;;;12.90;7.60;;;2.80;99.90;;;;;;4918020;28;20448;-68
2023/01/21 10:01:13;;;;;;;13.63;8.07;;;2.80;99.90;;;;;;4916370;28;20243;-68
2023/01/21 10:04:15;;;;;;;16.07;8.80;;;2.90;99.90;;;;;;4916521;28;20245;-67
2023/01/21 10:07:09;;;;;;;14.97;7.97;;;3.00;99.90;;;;;;4914799;29;20304;-66
2023/01/21 10:10:07;;;;;;;12.97;7.73;;;3.10;99.90;;;;;;4951222;28;20223;-67
2023/01/21 10:13:06;;;;;;;12.17;8.23;;;3.10;99.90;;;;;;4929525;28;20258;-67
2023/01/21 10:16:08;;;;;;;14.43;7.93;;;3.20;99.90;;;;;;4926329;28;20591;-67
2023/01/21 10:19:01;;;;;;;13.80;7.43;;;3.30;99.90;;;;;;4931090;28;20240;-68
2023/01/21 10:21:54;;;;;;;13.37;7.37;;;3.30;99.90;;;;;;4952057;28;20230;-67
2023/01/21 10:24:47;;;;;;;12.80;8.23;;;3.30;99.90;;;;;;4917168;28;20233;-68
2023/01/21 10:27:38;;;;;;;17.70;8.70;;;3.40;99.90;;;;;;4922100;28;20230;-67
2023/01/21 10:30:33;;;;;;;16.23;8.23;;;3.50;99.90;;;;;;4927689;28;20302;-67
2023/01/21 10:33:26;;;;;;;14.87;7.97;;;3.40;99.90;;;;;;4921856;29;20237;-67
2023/01/21 10:36:44;;;;;;;19.50;9.00;;;3.50;99.90;;;;;;4930562;28;20229;-69
2023/01/21 10:39:44;;;;;;;17.43;8.97;;;3.60;99.90;;;;;;4917532;28;20267;-67
2023/01/21 10:42:44;;;;;;;16.03;8.70;;;3.60;99.90;;;;;;4920877;28;20250;-67
2023/01/21 10:45:43;;;;;;;16.23;8.33;;;3.70;99.90;;;;;;4945800;28;20241;-66
2023/01/21 10:48:41;;;;;;;18.97;8.90;;;3.70;99.90;;;;;;4943763;28;20222;-69
2023/01/21 10:51:36;;;;;;;19.87;9.17;;;3.70;99.90;;;;;;4945416;28;20230;-67
2023/01/21 10:54:39;;;;;;;15.87;8.47;;;3.70;99.90;;;;;;4918877;29;20587;-67
2023/01/21 10:57:44;;;;;;;19.40;10.27;;;3.70;99.90;;;;;;4918327;28;20222;-68
2023/01/21 11:00:37;;;;;;;24.17;10.13;;;4.00;99.90;;;;;;4934359;28;20254;-67
2023/01/21 11:03:37;;;;;;;18.73;9.73;;;3.90;99.90;;;;;;4939042;28;20217;-68
2023/01/21 11:06:31;;;;;;;19.80;10.73;;;3.90;99.90;;;;;;4921163;28;20250;-69
2023/01/21 11:09:19;;;;;;;20.13;10.47;;;3.80;99.90;;;;;;4922147;28;20237;-68
2023/01/21 11:12:10;;;;;;;25.37;11.57;;;3.90;99.90;;;;;;4934953;28;20219;-69
2023/01/21 11:15:02;;;;;;;23.73;10.87;;;4.00;99.90;;;;;;4937144;28;20226;-67
2023/01/21 11:17:55;;;;;;;23.53;11.37;;;4.00;99.90;;;;;;4949113;28;20233;-66
2023/01/21 11:20:46;;;;;;;24.20;11.93;;;3.90;99.90;;;;;;4921945;28;20224;-66
2023/01/21 11:23:35;;;;;;;26.27;12.43;;;4.00;99.90;;;;;;4926933;28;20239;-66
2023/01/21 11:26:27;;;;;;;26.37;13.03;;;4.10;99.90;;;;;;4929706;28;20238;-66
2023/01/21 11:29:18;;;;;;;28.27;12.87;;;4.20;99.90;;;;;;4918437;28;20220;-66
2023/01/21 11:32:20;;;;;;;25.50;12.80;;;4.20;99.90;;;;;;4924284;28;20225;-64
2023/01/21 11:35:21;;;;;;;30.83;13.70;;;4.20;99.90;;;;;;4931672;28;20289;-64
2023/01/21 11:38:24;;;;;;;31.17;13.97;;;4.30;99.90;;;;;;4938128;28;20229;-64
2023/01/21 11:41:21;;;;;;;29.27;13.87;;;4.50;99.90;;;;;;4925835;28;20237;-65
2023/01/21 11:44:17;;;;;;;40.67;17.97;;;4.40;99.90;;;;;;4932534;28;20226;-66
2023/01/21 11:47:28;;;;;;;34.70;15.63;;;4.50;99.90;;;;;;4951917;28;20258;-66
2023/01/21 11:50:19;;;;;;;35.13;15.80;;;4.50;99.90;;;;;;4924732;28;20243;-68
2023/01/21 11:53:16;;;;;;;31.90;15.33;;;4.50;99.90;;;;;;4936498;28;20939;-66
2023/01/21 11:56:06;;;;;;;35.93;15.60;;;4.50;99.90;;;;;;4921801;28;20224;-68
2023/01/21 11:58:55;;;;;;;39.17;17.50;;;4.50;99.90;;;;;;4928976;28;20779;-68
2023/01/21 12:01:52;;;;;;;38.30;16.33;;;4.60;99.90;;;;;;4925843;28;20234;-66
2023/01/21 12:04:45;;;;;;;38.27;16.70;;;4.70;99.90;;;;;;4920778;28;20746;-67
2023/01/21 12:07:37;;;;;;;38.00;16.03;;;4.80;99.90;;;;;;4921102;28;20281;-68
2023/01/21 12:10:31;;;;;;;38.77;16.40;;;4.60;99.90;;;;;;4925457;28;20269;-68
2023/01/21 12:13:27;;;;;;;38.03;16.43;;;4.70;99.90;;;;;;4914055;29;20366;-66
2023/01/21 12:16:30;;;;;;;36.30;16.37;;;4.70;99.90;;;;;;4931268;28;20228;-66
2023/01/21 12:19:38;;;;;;;37.93;17.90;;;4.70;99.90;;;;;;4926615;28;20240;-67
2023/01/21 12:22:42;;;;;;;38.40;16.97;;;4.70;99.90;;;;;;4920796;28;20656;-68
2023/01/21 12:25:41;;;;;;;41.07;17.73;;;4.70;99.90;;;;;;4920257;28;20227;-66
2023/01/21 12:28:54;;;;;;;41.53;18.63;;;4.70;99.90;;;;;;4919685;28;20229;-66
2023/01/21 12:31:50;;;;;;;39.13;17.67;;;4.80;99.90;;;;;;4922759;28;20228;-66
2023/01/21 12:34:46;;;;;;;39.00;16.70;;;4.80;99.90;;;;;;4935774;28;20231;-67
2023/01/21 12:37:41;;;;;;;38.77;17.37;;;4.70;99.90;;;;;;4946222;28;20236;-66
2023/01/21 12:40:36;;;;;;;43.77;18.20;;;4.80;99.90;;;;;;4926029;28;20230;-66
2023/01/21 12:43:30;;;;;;;45.80;18.20;;;4.80;99.90;;;;;;4924629;28;20231;-66
2023/01/21 12:46:23;;;;;;;48.90;19.30;;;4.80;99.90;;;;;;4922724;28;20230;-65
2023/01/21 12:49:17;;;;;;;44.47;18.33;;;4.80;99.90;;;;;;4935058;28;20684;-65
2023/01/21 12:52:16;;;;;;;49.17;18.40;;;4.80;99.90;;;;;;4920240;28;20646;-66
2023/01/21 12:55:13;;;;;;;43.33;18.20;;;5.00;99.90;;;;;;4925653;28;20615;-67
2023/01/21 12:58:08;;;;;;;39.30;18.13;;;4.90;99.90;;;;;;4921435;28;20720;-65
2023/01/21 13:01:00;;;;;;;43.63;18.53;;;4.90;99.90;;;;;;4926628;28;20224;-67
2023/01/21 13:03:58;;;;;;;42.97;18.33;;;4.90;99.90;;;;;;4942125;28;20240;-66
2023/01/21 13:06:52;;;;;;;47.23;18.17;;;5.00;99.90;;;;;;4914579;29;20251;-66
2023/01/21 13:09:46;;;;;;;37.33;17.50;;;5.00;99.90;;;;;;4920130;28;20227;-66
2023/01/21 13:12:37;;;;;;;45.33;17.90;;;5.00;99.90;;;;;;4920096;28;20264;-67
2023/01/21 13:15:32;;;;;;;43.80;19.37;;;4.90;99.90;;;;;;4948640;28;20266;-68
2023/01/21 13:18:25;;;;;;;41.27;18.13;;;5.00;99.90;;;;;;4924763;28;20236;-67
2023/01/21 13:21:22;;;;;;;48.60;19.57;;;5.00;99.90;;;;;;4908982;29;20236;-68
2023/01/21 13:24:17;;;;;;;45.17;18.03;;;5.00;99.90;;;;;;4923162;28;20302;-66
2023/01/21 13:27:14;;;;;;;42.57;17.33;;;5.00;99.90;;;;;;4952623;28;20246;-67
2023/01/21 13:30:09;;;;;;;44.70;18.40;;;5.00;99.90;;;;;;4944407;28;20237;-68
2023/01/21 13:33:13;;;;;;;42.73;18.17;;;5.00;99.90;;;;;;4937613;28;20232;-67
2023/01/21 13:36:16;;;;;;;51.23;19.17;;;5.10;99.90;;;;;;4942373;28;20896;-67
2023/01/21 13:39:16;;;;;;;46.77;19.13;;;5.10;99.90;;;;;;4924904;28;20319;-67
2023/01/21 13:42:20;;;;;;;43.57;17.83;;;5.20;99.90;;;;;;4912724;28;20231;-67
2023/01/21 13:45:23;;;;;;;47.47;19.10;;;5.20;99.90;;;;;;4919625;28;20238;-68
2023/01/21 13:48:48;;;;;;;45.77;18.70;;;5.20;99.90;;;;;;4919126;28;20762;-67
2023/01/21 13:51:49;;;;;;;44.80;18.77;;;5.20;99.90;;;;;;4909589;28;21070;-67
2023/01/21 13:54:57;;;;;;;50.93;18.80;;;5.20;99.90;;;;;;4918463;28;20228;-68
2023/01/21 13:58:00;;;;;;;44.47;19.63;;;5.20;99.90;;;;;;4945216;28;20619;-67
2023/01/21 14:00:56;;;;;;;46.77;18.67;;;5.30;99.90;;;;;;4908690;29;20399;-68
2023/01/21 14:03:54;;;;;;;43.60;17.93;;;5.30;99.90;;;;;;4924875;28;20220;-70
2023/01/21 14:06:51;;;;;;;49.43;20.00;;;5.20;99.90;;;;;;4924298;28;20800;-67
2023/01/21 14:09:45;;;;;;;58.43;20.27;;;5.30;99.90;;;;;;4920151;28;20236;-66
2023/01/21 14:13:07;;;;;;;46.03;20.00;;;5.30;99.90;;;;;;4936635;28;20269;-66
2023/01/21 14:16:10;;;;;;;49.87;19.87;;;5.30;99.90;;;;;;4915465;28;21418;-68
2023/01/21 14:19:17;;;;;;;51.13;21.20;;;5.30;99.90;;;;;;4923505;28;20236;-66
2023/01/21 14:22:26;;;;;;;53.63;21.40;;;5.30;99.90;;;;;;4912104;28;20239;-66
2023/01/21 14:25:27;;;;;;;56.87;21.50;;;5.30;99.90;;;;;;4924508;28;20255;-67
2023/01/21 14:28:25;;;;;;;55.03;20.60;;;5.30;99.90;;;;;;4916519;28;20238;-66
2023/01/21 14:31:19;;;;;;;55.70;20.97;;;5.30;99.90;;;;;;4922801;28;20307;-66
2023/01/21 14:34:17;;;;;;;57.03;22.73;;;5.30;99.90;;;;;;4930110;28;20356;-66
2023/01/21 14:37:10;;;;;;;55.03;21.47;;;5.30;99.90;;;;;;4906345;28;20784;-65
2023/01/21 14:40:09;;;;;;;59.07;22.43;;;5.40;99.90;;;;;;4914467;28;20232;-69
2023/01/21 14:42:58;;;;;;;55.00;22.40;;;5.40;99.90;;;;;;4946800;28;20276;-65
2023/01/21 14:45:55;;;;;;;57.87;22.27;;;5.40;99.90;;;;;;4920498;28;20239;-66
2023/01/21 14:48:57;;;;;;;53.57;21.10;;;5.40;99.90;;;;;;4930002;28;20741;-67
2023/01/21 14:51:50;;;;;;;54.37;22.13;;;5.40;99.90;;;;;;4944753;28;20236;-68
2023/01/21 14:54:43;;;;;;;62.03;22.67;;;5.40;99.90;;;;;;4920831;28;20225;-72
2023/01/21 14:57:35;;;;;;;59.57;22.70;;;5.50;99.90;;;;;;4915227;28;20232;-67
2023/01/21 15:00:30;;;;;;;68.97;22.30;;;5.50;99.90;;;;;;4953668;28;20228;-67
2023/01/21 15:03:25;;;;;;;52.33;20.23;;;5.40;99.90;;;;;;4933854;28;20237;-69
2023/01/21 15:06:21;;;;;;;52.73;21.20;;;5.30;99.90;;;;;;4915655;29;20242;-68
2023/01/21 15:09:20;;;;;;;63.13;22.83;;;5.30;99.90;;;;;;4918173;28;20314;-68